sensor_id;sensor_type;location;lat;lon;timestamp;temperature;humidity
8838;DHT22;4455;50.880;4.698;2022-07-21T00:01:34;20.50;99.90
8838;DHT22;4455;50.880;4.698;2022-07-21T00:04:01;20.50;99.90
8838;DHT22;4455;50.880;4.698;2022-07-21T00:06:27;20.40;99.90
8838;DHT22;4455;50.880;4.698;2022-07-21T00:08:53;20.30;99.90
8838;DHT22;4455;50.880;4.698;2022-07-21T00:11:19;20.40;99.90
8838;DHT22;4455;50.880;4.698;2022-07-21T00:13:45;20.50;99.90
8838;DHT22;4455;50.880;4.698;2022-07-21T00:16:11;20.50;99.90
8838;DHT22;4455;50.880;4.698;2022-07-21T00:18:36;20.50;99.90
8838;DHT22;4455;50.880;4.698;2022-07-21T00:21:03;20.50;99.90
8838;DHT22;4455;50.880;4.698;2022-07-21T00:23:29;20.50;99.90
8838;DHT22;4455;50.880;4.698;2022-07-21T00:25:55;20.50;99.90
8838;DHT22;4455;50.880;4.698;2022-07-21T00:28:21;20.50;99.90
8838;DHT22;4455;50.880;4.698;2022-07-21T00:30:47;20.50;99.90
8838;DHT22;4455;50.880;4.698;2022-07-21T00:33:13;20.40;99.90
8838;DHT22;4455;50.880;4.698;2022-07-21T00:35:39;20.40;99.90
8838;DHT22;4455;50.880;4.698;2022-07-21T00:38:05;20.40;99.90
8838;DHT22;4455;50.880;4.698;2022-07-21T00:40:31;20.40;99.90
8838;DHT22;4455;50.880;4.698;2022-07-21T00:42:57;20.30;99.90
8838;DHT22;4455;50.880;4.698;2022-07-21T00:45:23;20.40;99.90
8838;DHT22;4455;50.880;4.698;2022-07-21T00:47:49;20.40;99.90
8838;DHT22;4455;50.880;4.698;2022-07-21T00:50:18;20.40;99.90
8838;DHT22;4455;50.880;4.698;2022-07-21T00:52:44;20.50;99.90
8838;DHT22;4455;50.880;4.698;2022-07-21T00:55:13;20.50;99.90
8838;DHT22;4455;50.880;4.698;2022-07-21T00:57:40;20.50;99.90
8838;DHT22;4455;50.880;4.698;2022-07-21T01:00:07;20.40;99.90
8838;DHT22;4455;50.880;4.698;2022-07-21T01:02:34;20.30;99.90
8838;DHT22;4455;50.880;4.698;2022-07-21T01:05:07;20.20;99.90
8838;DHT22;4455;50.880;4.698;2022-07-21T01:07:41;20.20;99.90
8838;DHT22;4455;50.880;4.698;2022-07-21T01:10:07;20.10;99.90
8838;DHT22;4455;50.880;4.698;2022-07-21T01:12:36;20.10;99.90
8838;DHT22;4455;50.880;4.698;2022-07-21T01:15:05;20.00;99.90
8838;DHT22;4455;50.880;4.698;2022-07-21T01:17:32;19.90;99.90
8838;DHT22;4455;50.880;4.698;2022-07-21T01:19:59;19.90;99.90
8838;DHT22;4455;50.880;4.698;2022-07-21T01:22:26;20.00;99.90
8838;DHT22;4455;50.880;4.698;2022-07-21T01:24:52;20.00;99.90
8838;DHT22;4455;50.880;4.698;2022-07-21T01:27:17;20.00;99.90
8838;DHT22;4455;50.880;4.698;2022-07-21T01:29:43;20.10;99.90
8838;DHT22;4455;50.880;4.698;2022-07-21T01:32:12;20.00;99.90
8838;DHT22;4455;50.880;4.698;2022-07-21T01:34:38;20.10;99.90
8838;DHT22;4455;50.880;4.698;2022-07-21T01:37:05;20.10;99.90
8838;DHT22;4455;50.880;4.698;2022-07-21T01:39:32;20.10;99.90
8838;DHT22;4455;50.880;4.698;2022-07-21T01:42:19;20.20;99.90
8838;DHT22;4455;50.880;4.698;2022-07-21T01:44:45;20.20;99.90
8838;DHT22;4455;50.880;4.698;2022-07-21T01:47:11;20.20;99.90
8838;DHT22;4455;50.880;4.698;2022-07-21T01:49:36;20.20;99.90
8838;DHT22;4455;50.880;4.698;2022-07-21T01:52:02;20.10;99.90
8838;DHT22;4455;50.880;4.698;2022-07-21T01:54:31;20.20;99.90
8838;DHT22;4455;50.880;4.698;2022-07-21T01:56:57;20.10;99.90
8838;DHT22;4455;50.880;4.698;2022-07-21T01:59:23;20.10;99.90
8838;DHT22;4455;50.880;4.698;2022-07-21T02:01:49;20.10;99.90
8838;DHT22;4455;50.880;4.698;2022-07-21T02:04:15;20.10;99.90
8838;DHT22;4455;50.880;4.698;2022-07-21T02:06:41;20.00;99.90
8838;DHT22;4455;50.880;4.698;2022-07-21T02:09:07;20.00;99.90
8838;DHT22;4455;50.880;4.698;2022-07-21T02:11:34;20.20;99.90
8838;DHT22;4455;50.880;4.698;2022-07-21T02:14:00;20.10;99.90
8838;DHT22;4455;50.880;4.698;2022-07-21T02:16:27;20.20;99.90
8838;DHT22;4455;50.880;4.698;2022-07-21T02:18:52;20.20;99.90
8838;DHT22;4455;50.880;4.698;2022-07-21T02:21:19;20.20;99.90
8838;DHT22;4455;50.880;4.698;2022-07-21T02:23:45;20.30;99.90
8838;DHT22;4455;50.880;4.698;2022-07-21T02:26:11;20.30;99.90
8838;DHT22;4455;50.880;4.698;2022-07-21T02:28:36;20.30;99.90
8838;DHT22;4455;50.880;4.698;2022-07-21T02:31:02;20.30;99.90
8838;DHT22;4455;50.880;4.698;2022-07-21T02:33:29;20.30;99.90
8838;DHT22;4455;50.880;4.698;2022-07-21T02:35:55;20.40;99.90
8838;DHT22;4455;50.880;4.698;2022-07-21T02:38:20;20.40;99.90
8838;DHT22;4455;50.880;4.698;2022-07-21T02:40:46;20.40;99.90
8838;DHT22;4455;50.880;4.698;2022-07-21T02:43:14;20.40;99.90
8838;DHT22;4455;50.880;4.698;2022-07-21T02:45:41;20.30;99.90
8838;DHT22;4455;50.880;4.698;2022-07-21T02:48:12;20.40;99.90
8838;DHT22;4455;50.880;4.698;2022-07-21T02:50:41;20.40;99.90
8838;DHT22;4455;50.880;4.698;2022-07-21T02:53:09;20.40;99.90
8838;DHT22;4455;50.880;4.698;2022-07-21T02:55:36;20.50;99.90
8838;DHT22;4455;50.880;4.698;2022-07-21T02:58:21;20.40;99.90
8838;DHT22;4455;50.880;4.698;2022-07-21T03:00:51;20.40;99.90
8838;DHT22;4455;50.880;4.698;2022-07-21T03:03:18;20.40;99.90
8838;DHT22;4455;50.880;4.698;2022-07-21T03:05:44;20.20;99.90
8838;DHT22;4455;50.880;4.698;2022-07-21T03:08:10;20.20;99.90
8838;DHT22;4455;50.880;4.698;2022-07-21T03:10:37;20.10;99.90
8838;DHT22;4455;50.880;4.698;2022-07-21T03:13:04;20.20;99.90
8838;DHT22;4455;50.880;4.698;2022-07-21T03:15:31;20.10;99.90
8838;DHT22;4455;50.880;4.698;2022-07-21T03:17:57;20.10;99.90
8838;DHT22;4455;50.880;4.698;2022-07-21T03:20:29;19.90;99.90
8838;DHT22;4455;50.880;4.698;2022-07-21T03:22:57;19.90;99.90
8838;DHT22;4455;50.880;4.698;2022-07-21T03:25:23;19.90;99.90
8838;DHT22;4455;50.880;4.698;2022-07-21T03:27:49;20.00;99.90
8838;DHT22;4455;50.880;4.698;2022-07-21T03:30:17;20.10;99.90
8838;DHT22;4455;50.880;4.698;2022-07-21T03:32:43;20.10;99.90
8838;DHT22;4455;50.880;4.698;2022-07-21T03:35:11;20.00;99.90
8838;DHT22;4455;50.880;4.698;2022-07-21T03:40:18;20.10;99.90
8838;DHT22;4455;50.880;4.698;2022-07-21T03:42:46;20.00;99.90
8838;DHT22;4455;50.880;4.698;2022-07-21T03:45:12;20.00;99.90
8838;DHT22;4455;50.880;4.698;2022-07-21T03:47:38;20.10;99.90
8838;DHT22;4455;50.880;4.698;2022-07-21T03:50:04;20.00;99.90
8838;DHT22;4455;50.880;4.698;2022-07-21T03:52:38;20.00;99.90
8838;DHT22;4455;50.880;4.698;2022-07-21T03:55:04;20.10;99.90
8838;DHT22;4455;50.880;4.698;2022-07-21T03:57:42;20.10;99.90
8838;DHT22;4455;50.880;4.698;2022-07-21T04:00:11;20.10;99.90
8838;DHT22;4455;50.880;4.698;2022-07-21T04:02:38;20.00;99.90
8838;DHT22;4455;50.880;4.698;2022-07-21T04:05:05;20.00;99.90
8838;DHT22;4455;50.880;4.698;2022-07-21T04:07:31;20.00;99.90
8838;DHT22;4455;50.880;4.698;2022-07-21T04:09:56;20.00;99.90
8838;DHT22;4455;50.880;4.698;2022-07-21T04:12:27;19.90;99.90
8838;DHT22;4455;50.880;4.698;2022-07-21T04:14:53;19.80;99.90
8838;DHT22;4455;50.880;4.698;2022-07-21T04:17:19;19.80;99.90
8838;DHT22;4455;50.880;4.698;2022-07-21T04:19:45;19.70;99.90
8838;DHT22;4455;50.880;4.698;2022-07-21T04:22:11;19.70;99.90
8838;DHT22;4455;50.880;4.698;2022-07-21T04:24:38;19.70;99.90
8838;DHT22;4455;50.880;4.698;2022-07-21T04:27:05;19.60;99.90
8838;DHT22;4455;50.880;4.698;2022-07-21T04:29:33;19.70;99.90
8838;DHT22;4455;50.880;4.698;2022-07-21T04:31:59;19.70;99.90
8838;DHT22;4455;50.880;4.698;2022-07-21T04:34:25;19.70;99.90
8838;DHT22;4455;50.880;4.698;2022-07-21T04:36:51;19.70;99.90
8838;DHT22;4455;50.880;4.698;2022-07-21T04:39:16;19.70;99.90
8838;DHT22;4455;50.880;4.698;2022-07-21T04:41:42;19.80;99.90
8838;DHT22;4455;50.880;4.698;2022-07-21T04:44:10;19.90;99.90
8838;DHT22;4455;50.880;4.698;2022-07-21T04:46:36;19.80;99.90
8838;DHT22;4455;50.880;4.698;2022-07-21T04:49:02;19.80;99.90
8838;DHT22;4455;50.880;4.698;2022-07-21T04:51:28;19.80;99.90
8838;DHT22;4455;50.880;4.698;2022-07-21T04:53:53;19.80;99.90
8838;DHT22;4455;50.880;4.698;2022-07-21T04:56:19;19.90;99.90
8838;DHT22;4455;50.880;4.698;2022-07-21T04:58:46;19.90;99.90
8838;DHT22;4455;50.880;4.698;2022-07-21T05:01:12;19.90;99.90
8838;DHT22;4455;50.880;4.698;2022-07-21T05:03:40;19.90;99.90
8838;DHT22;4455;50.880;4.698;2022-07-21T05:06:06;19.90;99.90
8838;DHT22;4455;50.880;4.698;2022-07-21T05:08:32;19.90;99.90
8838;DHT22;4455;50.880;4.698;2022-07-21T05:10:58;19.90;99.90
8838;DHT22;4455;50.880;4.698;2022-07-21T05:13:23;19.90;99.90
8838;DHT22;4455;50.880;4.698;2022-07-21T05:15:49;19.80;99.90
8838;DHT22;4455;50.880;4.698;2022-07-21T05:18:16;19.90;99.90
8838;DHT22;4455;50.880;4.698;2022-07-21T05:20:42;19.90;99.90
8838;DHT22;4455;50.880;4.698;2022-07-21T05:23:08;19.80;99.90
8838;DHT22;4455;50.880;4.698;2022-07-21T05:25:34;19.90;99.90
8838;DHT22;4455;50.880;4.698;2022-07-21T05:28:01;19.90;99.90
8838;DHT22;4455;50.880;4.698;2022-07-21T05:30:28;20.00;99.90
8838;DHT22;4455;50.880;4.698;2022-07-21T05:32:54;19.90;99.90
8838;DHT22;4455;50.880;4.698;2022-07-21T05:35:20;19.90;99.90
8838;DHT22;4455;50.880;4.698;2022-07-21T05:37:46;20.00;99.90
8838;DHT22;4455;50.880;4.698;2022-07-21T05:40:12;20.10;99.90
8838;DHT22;4455;50.880;4.698;2022-07-21T05:42:40;20.20;99.90
8838;DHT22;4455;50.880;4.698;2022-07-21T05:45:07;20.20;99.90
8838;DHT22;4455;50.880;4.698;2022-07-21T05:47:34;20.30;99.90
8838;DHT22;4455;50.880;4.698;2022-07-21T05:50:02;20.30;99.90
8838;DHT22;4455;50.880;4.698;2022-07-21T05:52:28;20.40;99.90
8838;DHT22;4455;50.880;4.698;2022-07-21T05:54:54;20.40;99.90
8838;DHT22;4455;50.880;4.698;2022-07-21T05:57:20;20.40;99.90
8838;DHT22;4455;50.880;4.698;2022-07-21T05:59:46;20.40;99.90
8838;DHT22;4455;50.880;4.698;2022-07-21T06:02:12;20.50;99.90
8838;DHT22;4455;50.880;4.698;2022-07-21T06:04:38;20.40;99.90
8838;DHT22;4455;50.880;4.698;2022-07-21T06:07:05;20.50;99.90
8838;DHT22;4455;50.880;4.698;2022-07-21T06:09:31;20.50;99.90
8838;DHT22;4455;50.880;4.698;2022-07-21T06:11:56;20.40;99.90
8838;DHT22;4455;50.880;4.698;2022-07-21T06:14:22;20.40;99.90
8838;DHT22;4455;50.880;4.698;2022-07-21T06:16:49;20.30;99.90
8838;DHT22;4455;50.880;4.698;2022-07-21T06:19:15;20.30;99.90
8838;DHT22;4455;50.880;4.698;2022-07-21T06:21:41;20.40;99.90
8838;DHT22;4455;50.880;4.698;2022-07-21T06:24:08;20.30;99.90
8838;DHT22;4455;50.880;4.698;2022-07-21T06:26:34;20.30;99.90
8838;DHT22;4455;50.880;4.698;2022-07-21T06:29:00;20.30;99.90
8838;DHT22;4455;50.880;4.698;2022-07-21T06:31:26;20.40;99.90
8838;DHT22;4455;50.880;4.698;2022-07-21T06:33:52;20.40;99.90
8838;DHT22;4455;50.880;4.698;2022-07-21T06:36:18;20.30;99.90
8838;DHT22;4455;50.880;4.698;2022-07-21T06:38:44;20.30;99.90
8838;DHT22;4455;50.880;4.698;2022-07-21T06:41:12;20.30;99.90
8838;DHT22;4455;50.880;4.698;2022-07-21T06:43:38;20.20;99.90
8838;DHT22;4455;50.880;4.698;2022-07-21T06:46:04;20.20;99.90
8838;DHT22;4455;50.880;4.698;2022-07-21T06:48:30;20.00;99.90
8838;DHT22;4455;50.880;4.698;2022-07-21T06:50:56;20.00;99.90
8838;DHT22;4455;50.880;4.698;2022-07-21T06:53:24;20.00;99.90
8838;DHT22;4455;50.880;4.698;2022-07-21T06:55:50;20.00;99.90
8838;DHT22;4455;50.880;4.698;2022-07-21T06:58:21;19.90;99.90
8838;DHT22;4455;50.880;4.698;2022-07-21T07:00:49;19.90;99.90
8838;DHT22;4455;50.880;4.698;2022-07-21T07:03:17;19.90;99.90
8838;DHT22;4455;50.880;4.698;2022-07-21T07:05:47;19.80;99.90
8838;DHT22;4455;50.880;4.698;2022-07-21T07:08:13;19.80;99.90
8838;DHT22;4455;50.880;4.698;2022-07-21T07:10:40;19.80;99.90
8838;DHT22;4455;50.880;4.698;2022-07-21T07:13:06;19.80;99.90
8838;DHT22;4455;50.880;4.698;2022-07-21T07:15:33;19.80;99.90
8838;DHT22;4455;50.880;4.698;2022-07-21T07:17:59;19.80;99.90
8838;DHT22;4455;50.880;4.698;2022-07-21T07:20:27;19.70;99.90
8838;DHT22;4455;50.880;4.698;2022-07-21T07:22:53;19.80;99.90
8838;DHT22;4455;50.880;4.698;2022-07-21T07:25:19;19.80;99.90
8838;DHT22;4455;50.880;4.698;2022-07-21T07:27:46;19.70;99.90
8838;DHT22;4455;50.880;4.698;2022-07-21T07:30:15;19.60;99.90
8838;DHT22;4455;50.880;4.698;2022-07-21T07:32:41;19.60;99.90
8838;DHT22;4455;50.880;4.698;2022-07-21T07:35:09;19.60;99.90
8838;DHT22;4455;50.880;4.698;2022-07-21T07:37:36;19.60;99.90
8838;DHT22;4455;50.880;4.698;2022-07-21T07:40:07;19.60;99.90
8838;DHT22;4455;50.880;4.698;2022-07-21T07:42:35;19.60;99.90
8838;DHT22;4455;50.880;4.698;2022-07-21T07:45:02;19.50;99.90
8838;DHT22;4455;50.880;4.698;2022-07-21T07:47:29;19.60;99.90
8838;DHT22;4455;50.880;4.698;2022-07-21T07:49:54;19.60;99.90
8838;DHT22;4455;50.880;4.698;2022-07-21T07:52:21;19.50;99.90
8838;DHT22;4455;50.880;4.698;2022-07-21T07:54:52;19.50;99.90
8838;DHT22;4455;50.880;4.698;2022-07-21T07:57:17;19.50;99.90
8838;DHT22;4455;50.880;4.698;2022-07-21T07:59:45;19.50;99.90
8838;DHT22;4455;50.880;4.698;2022-07-21T08:02:11;19.50;99.90
8838;DHT22;4455;50.880;4.698;2022-07-21T08:04:37;19.50;99.90
8838;DHT22;4455;50.880;4.698;2022-07-21T08:07:04;19.60;99.90
8838;DHT22;4455;50.880;4.698;2022-07-21T08:09:33;19.60;99.90
8838;DHT22;4455;50.880;4.698;2022-07-21T08:12:02;19.60;99.90
8838;DHT22;4455;50.880;4.698;2022-07-21T08:14:28;19.70;99.90
8838;DHT22;4455;50.880;4.698;2022-07-21T08:16:54;19.60;99.90
8838;DHT22;4455;50.880;4.698;2022-07-21T08:19:19;19.60;99.90
8838;DHT22;4455;50.880;4.698;2022-07-21T08:21:45;19.60;99.90
8838;DHT22;4455;50.880;4.698;2022-07-21T08:24:11;19.70;99.90
8838;DHT22;4455;50.880;4.698;2022-07-21T08:26:37;19.70;99.90
8838;DHT22;4455;50.880;4.698;2022-07-21T08:29:03;19.70;99.90
8838;DHT22;4455;50.880;4.698;2022-07-21T08:31:30;19.70;99.90
8838;DHT22;4455;50.880;4.698;2022-07-21T08:33:56;19.80;99.90
8838;DHT22;4455;50.880;4.698;2022-07-21T08:36:21;19.80;99.90
8838;DHT22;4455;50.880;4.698;2022-07-21T08:38:47;19.80;99.90
8838;DHT22;4455;50.880;4.698;2022-07-21T08:41:13;19.80;99.90
8838;DHT22;4455;50.880;4.698;2022-07-21T08:43:39;19.80;99.90
8838;DHT22;4455;50.880;4.698;2022-07-21T08:46:05;19.90;99.90
8838;DHT22;4455;50.880;4.698;2022-07-21T08:48:31;19.90;99.90
8838;DHT22;4455;50.880;4.698;2022-07-21T08:50:57;19.90;99.90
8838;DHT22;4455;50.880;4.698;2022-07-21T08:53:24;19.90;99.90
8838;DHT22;4455;50.880;4.698;2022-07-21T08:55:51;19.90;99.90
8838;DHT22;4455;50.880;4.698;2022-07-21T08:58:17;19.90;99.90
8838;DHT22;4455;50.880;4.698;2022-07-21T09:00:48;19.90;99.90
8838;DHT22;4455;50.880;4.698;2022-07-21T09:08:31;19.80;99.90
8838;DHT22;4455;50.880;4.698;2022-07-21T09:11:19;19.80;99.90
8838;DHT22;4455;50.880;4.698;2022-07-21T09:13:49;19.80;99.90
8838;DHT22;4455;50.880;4.698;2022-07-21T09:19:04;19.80;99.90
8838;DHT22;4455;50.880;4.698;2022-07-21T09:21:34;19.80;99.90
8838;DHT22;4455;50.880;4.698;2022-07-21T09:24:33;19.70;99.90
8838;DHT22;4455;50.880;4.698;2022-07-21T09:27:11;19.60;99.90
8838;DHT22;4455;50.880;4.698;2022-07-21T09:29:59;19.70;99.90
8838;DHT22;4455;50.880;4.698;2022-07-21T09:32:28;19.70;99.90
8838;DHT22;4455;50.880;4.698;2022-07-21T09:35:09;19.60;99.90
8838;DHT22;4455;50.880;4.698;2022-07-21T09:37:37;19.60;99.90
8838;DHT22;4455;50.880;4.698;2022-07-21T09:40:06;19.60;99.90
8838;DHT22;4455;50.880;4.698;2022-07-21T09:47:30;19.40;99.90
8838;DHT22;4455;50.880;4.698;2022-07-21T09:49:58;19.40;99.90
8838;DHT22;4455;50.880;4.698;2022-07-21T09:55:03;19.40;99.90
8838;DHT22;4455;50.880;4.698;2022-07-21T09:57:30;19.50;99.90
8838;DHT22;4455;50.880;4.698;2022-07-21T09:59:57;19.50;99.90
8838;DHT22;4455;50.880;4.698;2022-07-21T10:02:29;19.40;99.90
8838;DHT22;4455;50.880;4.698;2022-07-21T10:05:02;19.50;99.90
8838;DHT22;4455;50.880;4.698;2022-07-21T10:07:30;19.60;99.90
8838;DHT22;4455;50.880;4.698;2022-07-21T10:09:58;19.50;99.90
8838;DHT22;4455;50.880;4.698;2022-07-21T10:12:26;19.50;99.90
8838;DHT22;4455;50.880;4.698;2022-07-21T10:14:53;19.60;99.90
8838;DHT22;4455;50.880;4.698;2022-07-21T10:17:21;19.40;99.90
8838;DHT22;4455;50.880;4.698;2022-07-21T10:20:06;19.40;99.90
8838;DHT22;4455;50.880;4.698;2022-07-21T10:22:48;19.30;99.90
8838;DHT22;4455;50.880;4.698;2022-07-21T10:25:20;19.40;99.90
8838;DHT22;4455;50.880;4.698;2022-07-21T10:30:40;19.20;99.90
8838;DHT22;4455;50.880;4.698;2022-07-21T10:33:11;19.30;99.90
8838;DHT22;4455;50.880;4.698;2022-07-21T10:35:45;19.30;99.90
8838;DHT22;4455;50.880;4.698;2022-07-21T10:40:57;19.30;99.90
8838;DHT22;4455;50.880;4.698;2022-07-21T10:45:53;19.30;99.90
8838;DHT22;4455;50.880;4.698;2022-07-21T10:51:12;19.40;99.90
8838;DHT22;4455;50.880;4.698;2022-07-21T10:53:42;19.50;99.90
8838;DHT22;4455;50.880;4.698;2022-07-21T10:56:28;19.40;99.90
8838;DHT22;4455;50.880;4.698;2022-07-21T10:58:55;19.40;99.90
8838;DHT22;4455;50.880;4.698;2022-07-21T11:01:24;19.40;99.90
8838;DHT22;4455;50.880;4.698;2022-07-21T11:04:12;19.50;99.90
8838;DHT22;4455;50.880;4.698;2022-07-21T11:06:40;19.60;99.90
8838;DHT22;4455;50.880;4.698;2022-07-21T11:09:17;19.70;99.90
8838;DHT22;4455;50.880;4.698;2022-07-21T11:12:02;19.60;99.90
8838;DHT22;4455;50.880;4.698;2022-07-21T11:14:37;19.60;99.90
8838;DHT22;4455;50.880;4.698;2022-07-21T11:17:05;19.70;99.90
8838;DHT22;4455;50.880;4.698;2022-07-21T11:24:51;19.80;99.90
8838;DHT22;4455;50.880;4.698;2022-07-21T11:27:22;19.80;99.90
8838;DHT22;4455;50.880;4.698;2022-07-21T11:29:51;20.00;99.90
8838;DHT22;4455;50.880;4.698;2022-07-21T11:32:17;20.00;99.90
8838;DHT22;4455;50.880;4.698;2022-07-21T11:37:36;20.30;99.90
8838;DHT22;4455;50.880;4.698;2022-07-21T11:42:30;20.50;99.90
8838;DHT22;4455;50.880;4.698;2022-07-21T11:44:57;20.40;99.90
8838;DHT22;4455;50.880;4.698;2022-07-21T11:47:23;20.30;99.90
8838;DHT22;4455;50.880;4.698;2022-07-21T11:49:57;20.30;99.90
8838;DHT22;4455;50.880;4.698;2022-07-21T11:52:32;20.30;99.90
8838;DHT22;4455;50.880;4.698;2022-07-21T11:55:00;20.10;99.90
8838;DHT22;4455;50.880;4.698;2022-07-21T11:57:27;20.00;99.90
8838;DHT22;4455;50.880;4.698;2022-07-21T11:59:55;19.90;99.90
8838;DHT22;4455;50.880;4.698;2022-07-21T12:02:24;19.70;99.90
8838;DHT22;4455;50.880;4.698;2022-07-21T12:10:09;19.70;99.90
8838;DHT22;4455;50.880;4.698;2022-07-21T12:12:44;19.60;99.90
8838;DHT22;4455;50.880;4.698;2022-07-21T12:15:23;19.60;99.90
8838;DHT22;4455;50.880;4.698;2022-07-21T12:17:58;19.60;99.90
8838;DHT22;4455;50.880;4.698;2022-07-21T12:20:30;19.70;99.90
8838;DHT22;4455;50.880;4.698;2022-07-21T12:22:58;19.80;99.90
8838;DHT22;4455;50.880;4.698;2022-07-21T12:25:39;20.00;99.90
8838;DHT22;4455;50.880;4.698;2022-07-21T12:28:07;20.20;99.90
8838;DHT22;4455;50.880;4.698;2022-07-21T12:30:38;20.20;99.90
8838;DHT22;4455;50.880;4.698;2022-07-21T12:33:12;20.10;99.90
8838;DHT22;4455;50.880;4.698;2022-07-21T12:35:44;20.00;99.90
8838;DHT22;4455;50.880;4.698;2022-07-21T12:38:17;20.00;99.90
8838;DHT22;4455;50.880;4.698;2022-07-21T12:40:56;20.00;99.90
8838;DHT22;4455;50.880;4.698;2022-07-21T12:43:24;20.10;99.90
8838;DHT22;4455;50.880;4.698;2022-07-21T12:48:33;20.10;99.90
8838;DHT22;4455;50.880;4.698;2022-07-21T12:51:05;20.10;99.90
8838;DHT22;4455;50.880;4.698;2022-07-21T12:53:48;19.90;99.90
8838;DHT22;4455;50.880;4.698;2022-07-21T12:56:21;20.00;99.90
8838;DHT22;4455;50.880;4.698;2022-07-21T12:58:49;20.00;99.90
8838;DHT22;4455;50.880;4.698;2022-07-21T13:01:16;20.10;99.90
8838;DHT22;4455;50.880;4.698;2022-07-21T13:03:43;20.00;99.90
8838;DHT22;4455;50.880;4.698;2022-07-21T13:06:09;19.90;99.90
8838;DHT22;4455;50.880;4.698;2022-07-21T13:08:36;19.80;99.90
8838;DHT22;4455;50.880;4.698;2022-07-21T13:11:03;19.60;99.90
8838;DHT22;4455;50.880;4.698;2022-07-21T13:13:31;19.70;99.90
8838;DHT22;4455;50.880;4.698;2022-07-21T13:15:57;19.70;99.90
8838;DHT22;4455;50.880;4.698;2022-07-21T13:18:23;19.70;99.90
8838;DHT22;4455;50.880;4.698;2022-07-21T13:20:51;19.80;99.90
8838;DHT22;4455;50.880;4.698;2022-07-21T13:23:17;19.80;99.90
8838;DHT22;4455;50.880;4.698;2022-07-21T13:25:44;19.70;99.90
8838;DHT22;4455;50.880;4.698;2022-07-21T13:28:10;19.70;99.90
8838;DHT22;4455;50.880;4.698;2022-07-21T13:30:36;19.70;99.90
8838;DHT22;4455;50.880;4.698;2022-07-21T13:33:02;19.70;99.90
8838;DHT22;4455;50.880;4.698;2022-07-21T13:35:28;19.80;99.90
8838;DHT22;4455;50.880;4.698;2022-07-21T13:37:54;20.10;99.90
8838;DHT22;4455;50.880;4.698;2022-07-21T13:40:21;20.30;99.90
8838;DHT22;4455;50.880;4.698;2022-07-21T13:42:46;20.40;99.90
8838;DHT22;4455;50.880;4.698;2022-07-21T13:45:12;20.50;99.90
8838;DHT22;4455;50.880;4.698;2022-07-21T13:47:43;20.30;99.90
8838;DHT22;4455;50.880;4.698;2022-07-21T13:50:09;20.30;99.90
8838;DHT22;4455;50.880;4.698;2022-07-21T13:52:35;20.20;99.90
8838;DHT22;4455;50.880;4.698;2022-07-21T13:55:02;20.20;99.90
8838;DHT22;4455;50.880;4.698;2022-07-21T13:57:28;20.10;99.90
8838;DHT22;4455;50.880;4.698;2022-07-21T13:59:54;20.00;99.90
8838;DHT22;4455;50.880;4.698;2022-07-21T14:02:21;20.00;99.90
8838;DHT22;4455;50.880;4.698;2022-07-21T14:04:47;19.90;99.90
8838;DHT22;4455;50.880;4.698;2022-07-21T14:07:12;19.90;99.90
8838;DHT22;4455;50.880;4.698;2022-07-21T14:09:43;19.90;99.90
8838;DHT22;4455;50.880;4.698;2022-07-21T14:12:10;19.80;99.90
8838;DHT22;4455;50.880;4.698;2022-07-21T14:14:37;19.90;99.90
8838;DHT22;4455;50.880;4.698;2022-07-21T14:17:24;19.90;99.90
8838;DHT22;4455;50.880;4.698;2022-07-21T14:19:50;19.90;99.90
8838;DHT22;4455;50.880;4.698;2022-07-21T14:22:16;19.80;99.90
8838;DHT22;4455;50.880;4.698;2022-07-21T14:24:43;19.90;99.90
8838;DHT22;4455;50.880;4.698;2022-07-21T14:27:28;19.90;99.90
8838;DHT22;4455;50.880;4.698;2022-07-21T14:29:54;20.00;99.90
8838;DHT22;4455;50.880;4.698;2022-07-21T14:32:22;20.10;99.90
8838;DHT22;4455;50.880;4.698;2022-07-21T14:34:52;20.20;99.90
8838;DHT22;4455;50.880;4.698;2022-07-21T14:37:19;20.20;99.90
8838;DHT22;4455;50.880;4.698;2022-07-21T14:39:48;20.20;99.90
8838;DHT22;4455;50.880;4.698;2022-07-21T14:42:15;20.30;99.90
8838;DHT22;4455;50.880;4.698;2022-07-21T14:44:42;20.30;99.90
8838;DHT22;4455;50.880;4.698;2022-07-21T14:47:08;20.40;99.90
8838;DHT22;4455;50.880;4.698;2022-07-21T14:49:35;20.50;99.90
8838;DHT22;4455;50.880;4.698;2022-07-21T14:52:01;20.40;99.90
8838;DHT22;4455;50.880;4.698;2022-07-21T14:54:27;20.40;99.90
8838;DHT22;4455;50.880;4.698;2022-07-21T14:56:53;20.30;99.90
8838;DHT22;4455;50.880;4.698;2022-07-21T14:59:19;20.30;99.90
8838;DHT22;4455;50.880;4.698;2022-07-21T15:01:45;20.20;99.90
8838;DHT22;4455;50.880;4.698;2022-07-21T15:04:11;20.10;99.90
8838;DHT22;4455;50.880;4.698;2022-07-21T15:06:37;20.10;99.90
8838;DHT22;4455;50.880;4.698;2022-07-21T15:09:03;20.10;99.90
8838;DHT22;4455;50.880;4.698;2022-07-21T15:11:29;20.10;99.90
8838;DHT22;4455;50.880;4.698;2022-07-21T15:13:55;20.00;99.90
8838;DHT22;4455;50.880;4.698;2022-07-21T15:16:21;20.00;99.90
8838;DHT22;4455;50.880;4.698;2022-07-21T15:18:47;19.90;99.90
8838;DHT22;4455;50.880;4.698;2022-07-21T15:21:13;19.80;99.90
8838;DHT22;4455;50.880;4.698;2022-07-21T15:23:39;19.90;99.90
8838;DHT22;4455;50.880;4.698;2022-07-21T15:26:05;20.00;99.90
8838;DHT22;4455;50.880;4.698;2022-07-21T15:28:31;20.20;99.90
8838;DHT22;4455;50.880;4.698;2022-07-21T15:30:57;20.40;99.90
8838;DHT22;4455;50.880;4.698;2022-07-21T15:33:22;20.50;99.90
8838;DHT22;4455;50.880;4.698;2022-07-21T15:35:48;20.40;99.90
8838;DHT22;4455;50.880;4.698;2022-07-21T15:38:22;20.40;99.90
8838;DHT22;4455;50.880;4.698;2022-07-21T15:40:49;20.40;99.90
8838;DHT22;4455;50.880;4.698;2022-07-21T15:43:16;20.40;99.90
8838;DHT22;4455;50.880;4.698;2022-07-21T15:45:42;20.30;99.90
8838;DHT22;4455;50.880;4.698;2022-07-21T15:48:08;20.40;99.90
8838;DHT22;4455;50.880;4.698;2022-07-21T15:50:35;20.40;99.90
8838;DHT22;4455;50.880;4.698;2022-07-21T15:53:02;20.50;99.90
8838;DHT22;4455;50.880;4.698;2022-07-21T15:55:28;20.60;99.90
8838;DHT22;4455;50.880;4.698;2022-07-21T15:57:54;20.70;99.90
8838;DHT22;4455;50.880;4.698;2022-07-21T16:00:20;20.60;99.90
8838;DHT22;4455;50.880;4.698;2022-07-21T16:02:46;20.60;99.90
8838;DHT22;4455;50.880;4.698;2022-07-21T16:05:15;20.40;99.90
8838;DHT22;4455;50.880;4.698;2022-07-21T16:07:42;20.30;99.90
8838;DHT22;4455;50.880;4.698;2022-07-21T16:10:10;20.30;99.90
8838;DHT22;4455;50.880;4.698;2022-07-21T16:12:36;20.40;99.90
8838;DHT22;4455;50.880;4.698;2022-07-21T16:15:03;20.40;99.90
8838;DHT22;4455;50.880;4.698;2022-07-21T16:17:29;20.50;99.90
8838;DHT22;4455;50.880;4.698;2022-07-21T16:19:55;20.50;99.90
8838;DHT22;4455;50.880;4.698;2022-07-21T16:22:21;20.60;99.90
8838;DHT22;4455;50.880;4.698;2022-07-21T16:24:47;20.70;99.90
8838;DHT22;4455;50.880;4.698;2022-07-21T16:27:14;20.70;99.90
8838;DHT22;4455;50.880;4.698;2022-07-21T16:29:40;20.70;99.90
8838;DHT22;4455;50.880;4.698;2022-07-21T16:32:06;20.80;99.90
8838;DHT22;4455;50.880;4.698;2022-07-21T16:34:32;20.80;99.90
8838;DHT22;4455;50.880;4.698;2022-07-21T16:37:04;20.80;99.90
8838;DHT22;4455;50.880;4.698;2022-07-21T16:39:30;20.60;99.90
8838;DHT22;4455;50.880;4.698;2022-07-21T16:41:56;20.60;99.90
8838;DHT22;4455;50.880;4.698;2022-07-21T16:44:22;20.50;99.90
8838;DHT22;4455;50.880;4.698;2022-07-21T16:46:49;20.60;99.90
8838;DHT22;4455;50.880;4.698;2022-07-21T16:49:16;20.50;99.90
8838;DHT22;4455;50.880;4.698;2022-07-21T16:51:42;20.50;99.90
8838;DHT22;4455;50.880;4.698;2022-07-21T16:54:08;20.40;99.90